sensor_id;sensor_type;location;lat;lon;timestamp;pressure;altitude;pressure_sealevel;temperature;humidity
59531;BME280;45349;48.692;8.186;2022-11-20T00:00:28;98253.38;;;5.78;99.20
59531;BME280;45349;48.692;8.186;2022-11-20T00:02:57;98248.59;;;5.83;97.67
59531;BME280;45349;48.692;8.186;2022-11-20T00:05:23;98256.94;;;5.87;97.73
59531;BME280;45349;48.692;8.186;2022-11-20T00:07:53;98255.16;;;5.87;96.79
59531;BME280;45349;48.692;8.186;2022-11-20T00:10:20;98260.91;;;5.91;97.95
59531;BME280;45349;48.692;8.186;2022-11-20T00:12:46;98257.22;;;5.94;95.89
59531;BME280;45349;48.692;8.186;2022-11-20T00:15:13;98256.22;;;6.06;95.81
59531;BME280;45349;48.692;8.186;2022-11-20T00:17:40;98254.22;;;6.10;95.99
59531;BME280;45349;48.692;8.186;2022-11-20T00:20:07;98259.66;;;6.16;95.75
59531;BME280;45349;48.692;8.186;2022-11-20T00:22:35;98265.28;;;6.22;93.39
59531;BME280;45349;48.692;8.186;2022-11-20T00:25:03;98258.78;;;6.27;91.69
59531;BME280;45349;48.692;8.186;2022-11-20T00:27:31;98270.50;;;6.31;93.81
59531;BME280;45349;48.692;8.186;2022-11-20T00:30:00;98269.00;;;6.39;93.30
59531;BME280;45349;48.692;8.186;2022-11-20T00:32:26;98269.94;;;6.38;93.95
59531;BME280;45349;48.692;8.186;2022-11-20T00:34:53;98270.91;;;6.37;93.33
59531;BME280;45349;48.692;8.186;2022-11-20T00:37:21;98269.84;;;6.39;93.68
59531;BME280;45349;48.692;8.186;2022-11-20T00:39:47;98261.50;;;6.35;94.66
59531;BME280;45349;48.692;8.186;2022-11-20T00:42:15;98264.09;;;6.35;95.72
59531;BME280;45349;48.692;8.186;2022-11-20T00:44:43;98274.47;;;6.35;93.37
59531;BME280;45349;48.692;8.186;2022-11-20T00:47:09;98271.88;;;6.35;95.01
59531;BME280;45349;48.692;8.186;2022-11-20T00:49:36;98275.44;;;6.34;95.11
59531;BME280;45349;48.692;8.186;2022-11-20T00:52:03;98272.53;;;6.38;94.91
59531;BME280;45349;48.692;8.186;2022-11-20T00:54:30;98270.53;;;6.41;93.41
59531;BME280;45349;48.692;8.186;2022-11-20T00:56:57;98271.22;;;6.43;92.86
59531;BME280;45349;48.692;8.186;2022-11-20T00:59:24;98277.47;;;6.41;93.35
59531;BME280;45349;48.692;8.186;2022-11-20T01:01:51;98266.03;;;6.43;92.80
59531;BME280;45349;48.692;8.186;2022-11-20T01:04:18;98277.34;;;6.42;93.83
59531;BME280;45349;48.692;8.186;2022-11-20T01:06:44;98266.28;;;6.40;93.57
59531;BME280;45349;48.692;8.186;2022-11-20T01:09:13;98267.78;;;6.43;92.54
59531;BME280;45349;48.692;8.186;2022-11-20T01:11:42;98267.78;;;6.43;92.71
59531;BME280;45349;48.692;8.186;2022-11-20T01:14:11;98270.25;;;6.44;92.10
59531;BME280;45349;48.692;8.186;2022-11-20T01:16:42;98278.84;;;6.45;92.89
59531;BME280;45349;48.692;8.186;2022-11-20T01:19:11;98266.56;;;6.47;91.65
59531;BME280;45349;48.692;8.186;2022-11-20T01:21:39;98264.94;;;6.46;93.91
59531;BME280;45349;48.692;8.186;2022-11-20T01:24:08;98272.97;;;6.43;93.15
59531;BME280;45349;48.692;8.186;2022-11-20T01:26:38;98266.13;;;6.42;92.24
59531;BME280;45349;48.692;8.186;2022-11-20T01:29:05;98277.34;;;6.42;92.12
59531;BME280;45349;48.692;8.186;2022-11-20T01:31:34;98280.06;;;6.41;92.33
59531;BME280;45349;48.692;8.186;2022-11-20T01:34:04;98271.63;;;6.48;90.40
59531;BME280;45349;48.692;8.186;2022-11-20T01:36:33;98275.56;;;6.43;91.55
59531;BME280;45349;48.692;8.186;2022-11-20T01:39:03;98268.03;;;6.40;92.60
59531;BME280;45349;48.692;8.186;2022-11-20T01:41:31;98260.00;;;6.33;91.33
59531;BME280;45349;48.692;8.186;2022-11-20T01:44:18;98271.88;;;6.35;93.63
59531;BME280;45349;48.692;8.186;2022-11-20T01:46:52;98266.69;;;6.35;93.53
59531;BME280;45349;48.692;8.186;2022-11-20T01:49:27;98271.06;;;6.35;92.53
59531;BME280;45349;48.692;8.186;2022-11-20T01:51:57;98273.66;;;6.35;92.54
59531;BME280;45349;48.692;8.186;2022-11-20T01:54:29;98269.00;;;6.39;92.84
59531;BME280;45349;48.692;8.186;2022-11-20T01:56:59;98270.53;;;6.41;91.79
59531;BME280;45349;48.692;8.186;2022-11-20T01:59:28;98274.75;;;6.42;92.51
59531;BME280;45349;48.692;8.186;2022-11-20T02:01:56;98270.38;;;6.43;92.81
59531;BME280;45349;48.692;8.186;2022-11-20T02:04:24;98270.53;;;6.41;92.85
59531;BME280;45349;48.692;8.186;2022-11-20T02:06:55;98275.56;;;6.43;90.88
59531;BME280;45349;48.692;8.186;2022-11-20T02:09:25;98267.94;;;6.41;91.01
59531;BME280;45349;48.692;8.186;2022-11-20T02:11:52;98260.84;;;6.33;91.71
59531;BME280;45349;48.692;8.186;2022-11-20T02:14:19;98261.09;;;6.30;91.42
59531;BME280;45349;48.692;8.186;2022-11-20T02:16:46;98268.88;;;6.30;91.45
59531;BME280;45349;48.692;8.186;2022-11-20T02:19:20;98262.31;;;6.26;91.92
59531;BME280;45349;48.692;8.186;2022-11-20T02:21:56;98263.38;;;6.24;90.87
59531;BME280;45349;48.692;8.186;2022-11-20T02:24:25;98265.03;;;6.25;90.91
59531;BME280;45349;48.692;8.186;2022-11-20T02:26:54;98254.09;;;6.21;90.52
59531;BME280;45349;48.692;8.186;2022-11-20T02:29:26;98262.94;;;6.18;92.63
59531;BME280;45349;48.692;8.186;2022-11-20T02:31:54;98263.38;;;6.24;90.86
59531;BME280;45349;48.692;8.186;2022-11-20T02:34:22;98260.66;;;6.25;92.88
59531;BME280;45349;48.692;8.186;2022-11-20T02:36:49;98267.63;;;6.25;92.09
59531;BME280;45349;48.692;8.186;2022-11-20T02:39:19;98256.88;;;6.29;92.42
59531;BME280;45349;48.692;8.186;2022-11-20T02:41:48;98256.88;;;6.29;91.19
59531;BME280;45349;48.692;8.186;2022-11-20T02:44:14;98260.25;;;6.30;91.58
59531;BME280;45349;48.692;8.186;2022-11-20T02:46:41;98249.88;;;6.30;91.18
59531;BME280;45349;48.692;8.186;2022-11-20T02:49:07;98261.22;;;6.29;90.99
59531;BME280;45349;48.692;8.186;2022-11-20T02:51:34;98261.22;;;6.29;91.79
59531;BME280;45349;48.692;8.186;2022-11-20T02:54:00;98255.22;;;6.28;91.71
59531;BME280;45349;48.692;8.186;2022-11-20T02:56:27;98252.75;;;6.27;91.36
59531;BME280;45349;48.692;8.186;2022-11-20T02:58:55;98254.28;;;6.29;91.73
59531;BME280;45349;48.692;8.186;2022-11-20T03:01:22;98255.91;;;6.30;92.68
59531;BME280;45349;48.692;8.186;2022-11-20T03:03:48;98255.50;;;6.35;91.12
59531;BME280;45349;48.692;8.186;2022-11-20T03:06:15;98248.56;;;6.35;92.02
59531;BME280;45349;48.692;8.186;2022-11-20T03:08:42;98252.22;;;6.33;92.69
59531;BME280;45349;48.692;8.186;2022-11-20T03:11:08;98259.31;;;6.31;93.13
59531;BME280;45349;48.692;8.186;2022-11-20T03:13:35;98263.53;;;6.32;91.90
59531;BME280;45349;48.692;8.186;2022-11-20T03:16:08;98261.63;;;6.34;92.09
59531;BME280;45349;48.692;8.186;2022-11-20T03:18:35;98262.88;;;6.40;91.38
59531;BME280;45349;48.692;8.186;2022-11-20T03:21:02;98266.69;;;6.35;92.43
59531;BME280;45349;48.692;8.186;2022-11-20T03:23:30;98265.19;;;6.33;92.20
59531;BME280;45349;48.692;8.186;2022-11-20T03:26:10;98256.59;;;6.32;91.96
59531;BME280;45349;48.692;8.186;2022-11-20T03:28:38;98253.75;;;6.35;92.03
59531;BME280;45349;48.692;8.186;2022-11-20T03:31:08;98261.50;;;6.35;91.84
59531;BME280;45349;48.692;8.186;2022-11-20T03:33:35;98264.75;;;6.38;92.13
59531;BME280;45349;48.692;8.186;2022-11-20T03:36:02;98260.84;;;6.33;92.54
59531;BME280;45349;48.692;8.186;2022-11-20T03:38:29;98265.88;;;6.35;92.89
59531;BME280;45349;48.692;8.186;2022-11-20T03:40:59;98262.31;;;6.36;92.47
59531;BME280;45349;48.692;8.186;2022-11-20T03:43:28;98251.53;;;6.41;92.72
59531;BME280;45349;48.692;8.186;2022-11-20T03:45:55;98260.53;;;6.37;92.32
59531;BME280;45349;48.692;8.186;2022-11-20T03:48:24;98242.81;;;6.42;91.96
59531;BME280;45349;48.692;8.186;2022-11-20T03:50:50;98250.03;;;6.38;93.04
59531;BME280;45349;48.692;8.186;2022-11-20T03:53:19;98255.91;;;6.40;91.65
59531;BME280;45349;48.692;8.186;2022-11-20T03:55:50;98250.75;;;6.40;90.12
59531;BME280;45349;48.692;8.186;2022-11-20T03:58:17;98256.47;;;6.44;91.72
59531;BME280;45349;48.692;8.186;2022-11-20T04:00:44;98250.06;;;6.48;90.76
59531;BME280;45349;48.692;8.186;2022-11-20T04:03:10;98258.94;;;6.45;91.76
59531;BME280;45349;48.692;8.186;2022-11-20T04:05:38;98251.28;;;6.44;90.73
59531;BME280;45349;48.692;8.186;2022-11-20T04:08:05;98267.66;;;6.44;90.38
59531;BME280;45349;48.692;8.186;2022-11-20T04:10:31;98245.56;;;6.50;88.03
59531;BME280;45349;48.692;8.186;2022-11-20T04:12:58;98255.50;;;6.45;89.61
59531;BME280;45349;48.692;8.186;2022-11-20T04:15:24;98257.84;;;6.48;87.88
59531;BME280;45349;48.692;8.186;2022-11-20T04:17:51;98257.72;;;6.49;89.60
59531;BME280;45349;48.692;8.186;2022-11-20T04:20:18;98245.00;;;6.46;90.07
59531;BME280;45349;48.692;8.186;2022-11-20T04:22:46;98257.16;;;6.46;89.49
59531;BME280;45349;48.692;8.186;2022-11-20T04:25:12;98245.28;;;6.43;90.44
59531;BME280;45349;48.692;8.186;2022-11-20T04:27:39;98257.56;;;6.41;90.54
59531;BME280;45349;48.692;8.186;2022-11-20T04:32:51;98255.50;;;6.45;88.38
59531;BME280;45349;48.692;8.186;2022-11-20T04:35:18;98251.84;;;6.47;89.31
59531;BME280;45349;48.692;8.186;2022-11-20T04:37:46;98250.31;;;6.45;90.39
59531;BME280;45349;48.692;8.186;2022-11-20T04:40:12;98253.06;;;6.43;91.89
59531;BME280;45349;48.692;8.186;2022-11-20T04:42:39;98251.53;;;6.41;90.72
59531;BME280;45349;48.692;8.186;2022-11-20T04:45:06;98252.38;;;6.41;91.54
59531;BME280;45349;48.692;8.186;2022-11-20T04:47:32;98254.13;;;6.41;89.74
59531;BME280;45349;48.692;8.186;2022-11-20T04:49:59;98255.91;;;6.40;91.47
59531;BME280;45349;48.692;8.186;2022-11-20T04:52:26;98256.88;;;6.39;89.75
59531;BME280;45349;48.692;8.186;2022-11-20T04:54:53;98258.09;;;6.45;90.47
59531;BME280;45349;48.692;8.186;2022-11-20T04:57:20;98255.91;;;6.40;92.25
59531;BME280;45349;48.692;8.186;2022-11-20T04:59:47;98243.06;;;6.39;92.26
59531;BME280;45349;48.692;8.186;2022-11-20T05:02:13;98256.03;;;6.39;91.34
59531;BME280;45349;48.692;8.186;2022-11-20T05:04:40;98250.16;;;6.37;93.13
59531;BME280;45349;48.692;8.186;2022-11-20T05:07:06;98245.66;;;6.39;93.66
59531;BME280;45349;48.692;8.186;2022-11-20T05:09:33;98239.25;;;6.33;94.78
59531;BME280;45349;48.692;8.186;2022-11-20T05:12:01;98240.34;;;6.30;92.20
59531;BME280;45349;48.692;8.186;2022-11-20T05:14:27;98237.75;;;6.30;93.07
59531;BME280;45349;48.692;8.186;2022-11-20T05:16:54;98237.50;;;6.33;93.57
59531;BME280;45349;48.692;8.186;2022-11-20T05:19:20;98245.81;;;6.27;93.39
59531;BME280;45349;48.692;8.186;2022-11-20T05:24:37;98236.81;;;6.31;91.63
59531;BME280;45349;48.692;8.186;2022-11-20T05:27:05;98223.03;;;6.41;89.36
59531;BME280;45349;48.692;8.186;2022-11-20T05:29:32;98238.72;;;6.39;91.31
59531;BME280;45349;48.692;8.186;2022-11-20T05:31:58;98232.59;;;6.40;89.88
59531;BME280;45349;48.692;8.186;2022-11-20T05:34:25;98247.31;;;6.40;90.47
59531;BME280;45349;48.692;8.186;2022-11-20T05:36:51;98234.91;;;6.43;89.98
59531;BME280;45349;48.692;8.186;2022-11-20T05:39:18;98245.28;;;6.43;88.50
59531;BME280;45349;48.692;8.186;2022-11-20T05:41:44;98234.06;;;6.43;90.53
59531;BME280;45349;48.692;8.186;2022-11-20T05:44:13;98235.19;;;6.40;88.98
59531;BME280;45349;48.692;8.186;2022-11-20T05:46:39;98242.81;;;6.42;90.38
59531;BME280;45349;48.692;8.186;2022-11-20T05:49:06;98226.56;;;6.40;90.00
59531;BME280;45349;48.692;8.186;2022-11-20T05:51:32;98233.28;;;6.42;90.05
59531;BME280;45349;48.692;8.186;2022-11-20T05:53:59;98242.00;;;6.41;89.76
59531;BME280;45349;48.692;8.186;2022-11-20T05:56:25;98235.03;;;6.42;90.56
59531;BME280;45349;48.692;8.186;2022-11-20T05:58:52;98245.28;;;6.43;91.13
59531;BME280;45349;48.692;8.186;2022-11-20T06:01:22;98237.50;;;6.43;89.15
59531;BME280;45349;48.692;8.186;2022-11-20T06:03:49;98246.91;;;6.44;89.41
59531;BME280;45349;48.692;8.186;2022-11-20T06:06:16;98231.09;;;6.47;89.67
59531;BME280;45349;48.692;8.186;2022-11-20T06:08:44;98242.69;;;6.43;90.47
59531;BME280;45349;48.692;8.186;2022-11-20T06:11:12;98240.63;;;6.47;89.79
59531;BME280;45349;48.692;8.186;2022-11-20T06:13:40;98251.56;;;6.50;89.42
59531;BME280;45349;48.692;8.186;2022-11-20T06:16:07;98239.69;;;6.48;89.64
59531;BME280;45349;48.692;8.186;2022-11-20T06:18:34;98235.34;;;6.48;89.30
59531;BME280;45349;48.692;8.186;2022-11-20T06:21:04;98249.38;;;6.46;88.99
59531;BME280;45349;48.692;8.186;2022-11-20T06:23:32;98241.59;;;6.46;89.47
59531;BME280;45349;48.692;8.186;2022-11-20T06:26:01;98239.94;;;6.45;89.76
59531;BME280;45349;48.692;8.186;2022-11-20T06:28:28;98245.13;;;6.45;89.74
59531;BME280;45349;48.692;8.186;2022-11-20T06:30:55;98243.91;;;6.49;88.97
59531;BME280;45349;48.692;8.186;2022-11-20T06:33:22;98238.88;;;6.47;89.13
59531;BME280;45349;48.692;8.186;2022-11-20T06:35:50;98243.09;;;6.48;90.42
59531;BME280;45349;48.692;8.186;2022-11-20T06:38:16;98246.50;;;6.49;90.20
59531;BME280;45349;48.692;8.186;2022-11-20T06:40:43;98246.25;;;6.52;92.25
59531;BME280;45349;48.692;8.186;2022-11-20T06:43:10;98249.78;;;6.41;94.18
59531;BME280;45349;48.692;8.186;2022-11-20T06:45:36;98253.75;;;6.35;95.29
59531;BME280;45349;48.692;8.186;2022-11-20T06:48:03;98248.41;;;6.27;98.33
59531;BME280;45349;48.692;8.186;2022-11-20T06:50:30;98246.34;;;6.21;98.94
59531;BME280;45349;48.692;8.186;2022-11-20T06:53:00;98251.47;;;6.11;100.00
59531;BME280;45349;48.692;8.186;2022-11-20T06:55:27;98252.84;;;6.15;99.43
59531;BME280;45349;48.692;8.186;2022-11-20T06:57:56;98255.28;;;6.07;100.00
59531;BME280;45349;48.692;8.186;2022-11-20T07:00:23;98259.91;;;6.03;100.00
59531;BME280;45349;48.692;8.186;2022-11-20T07:02:50;98260.25;;;5.99;100.00
59531;BME280;45349;48.692;8.186;2022-11-20T07:05:17;98255.06;;;5.99;100.00
59531;BME280;45349;48.692;8.186;2022-11-20T07:07:43;98261.91;;;6.00;100.00
59531;BME280;45349;48.692;8.186;2022-11-20T07:10:12;98258.63;;;5.98;100.00
59531;BME280;45349;48.692;8.186;2022-11-20T07:12:38;98270.06;;;5.95;100.00
59531;BME280;45349;48.692;8.186;2022-11-20T07:15:06;98266.38;;;5.98;100.00
59531;BME280;45349;48.692;8.186;2022-11-20T07:17:32;98266.28;;;5.99;100.00
59531;BME280;45349;48.692;8.186;2022-11-20T07:19:59;98265.78;;;6.05;100.00
59531;BME280;45349;48.692;8.186;2022-11-20T07:22:25;98273.13;;;6.00;100.00
59531;BME280;45349;48.692;8.186;2022-11-20T07:24:52;98278.16;;;6.02;100.00
59531;BME280;45349;48.692;8.186;2022-11-20T07:27:20;98272.03;;;6.03;100.00
59531;BME280;45349;48.692;8.186;2022-11-20T07:29:46;98273.13;;;6.00;100.00
59531;BME280;45349;48.692;8.186;2022-11-20T07:32:13;98282.53;;;6.01;100.00
59531;BME280;45349;48.692;8.186;2022-11-20T07:34:40;98277.38;;;6.01;100.00
59531;BME280;45349;48.692;8.186;2022-11-20T07:37:06;98279.81;;;6.03;100.00
59531;BME280;45349;48.692;8.186;2022-11-20T07:39:33;98281.25;;;5.96;100.00
59531;BME280;45349;48.692;8.186;2022-11-20T07:41:59;98279.22;;;5.99;100.00
59531;BME280;45349;48.692;8.186;2022-11-20T07:44:27;98278.31;;;6.00;100.00
59531;BME280;45349;48.692;8.186;2022-11-20T07:46:54;98275.56;;;6.02;100.00
59531;BME280;45349;48.692;8.186;2022-11-20T07:49:20;98282.97;;;6.07;100.00
59531;BME280;45349;48.692;8.186;2022-11-20T07:51:49;98288.53;;;6.02;100.00
59531;BME280;45349;48.692;8.186;2022-11-20T07:54:16;98292.66;;;6.04;100.00
59531;BME280;45349;48.692;8.186;2022-11-20T07:56:43;98300.69;;;6.01;100.00
59531;BME280;45349;48.692;8.186;2022-11-20T07:59:09;98298.16;;;6.00;100.00
59531;BME280;45349;48.692;8.186;2022-11-20T08:01:38;98285.94;;;6.02;100.00
59531;BME280;45349;48.692;8.186;2022-11-20T08:04:05;98310.63;;;6.06;100.00
59531;BME280;45349;48.692;8.186;2022-11-20T08:06:32;98309.00;;;6.05;100.00
59531;BME280;45349;48.692;8.186;2022-11-20T08:08:59;98302.06;;;6.05;100.00
59531;BME280;45349;48.692;8.186;2022-11-20T08:11:25;98305.47;;;6.06;100.00
59531;BME280;45349;48.692;8.186;2022-11-20T08:14:10;98313.13;;;6.08;100.00
59531;BME280;45349;48.692;8.186;2022-11-20T08:16:42;98308.53;;;6.00;100.00
59531;BME280;45349;48.692;8.186;2022-11-20T08:19:09;98328.22;;;6.02;100.00
59531;BME280;45349;48.692;8.186;2022-11-20T08:21:36;98322.22;;;6.02;100.00
59531;BME280;45349;48.692;8.186;2022-11-20T08:24:03;98319.63;;;6.02;100.00
59531;BME280;45349;48.692;8.186;2022-11-20T08:26:30;98322.53;;;6.09;100.00
59531;BME280;45349;48.692;8.186;2022-11-20T08:28:59;98326.34;;;6.04;100.00
59531;BME280;45349;48.692;8.186;2022-11-20T08:31:27;98324.97;;;6.10;100.00
59531;BME280;45349;48.692;8.186;2022-11-20T08:33:55;98331.16;;;6.19;100.00
59531;BME280;45349;48.692;8.186;2022-11-20T08:36:22;98330.22;;;6.20;100.00
59531;BME280;45349;48.692;8.186;2022-11-20T08:38:50;98342.50;;;6.18;100.00
59531;BME280;45349;48.692;8.186;2022-11-20T08:41:17;98329.28;;;6.21;100.00
59531;BME280;45349;48.692;8.186;2022-11-20T08:43:52;98340.84;;;6.17;100.00
59531;BME280;45349;48.692;8.186;2022-11-20T08:46:19;98341.53;;;6.19;100.00
59531;BME280;45349;48.692;8.186;2022-11-20T08:48:46;98352.34;;;6.24;100.00
59531;BME280;45349;48.692;8.186;2022-11-20T08:51:14;98341.66;;;6.17;100.00
59531;BME280;45349;48.692;8.186;2022-11-20T08:53:41;98342.09;;;6.23;100.00
59531;BME280;45349;48.692;8.186;2022-11-20T08:56:08;98345.50;;;6.23;100.00
59531;BME280;45349;48.692;8.186;2022-11-20T08:58:35;98343.34;;;6.28;100.00
59531;BME280;45349;48.692;8.186;2022-11-20T09:01:02;98352.34;;;6.24;100.00
59531;BME280;45349;48.692;8.186;2022-11-20T09:03:31;98350.88;;;6.31;100.00
59531;BME280;45349;48.692;8.186;2022-11-20T09:05:58;98360.16;;;6.34;100.00
59531;BME280;45349;48.692;8.186;2022-11-20T09:08:27;98350.19;;;6.29;100.00
59531;BME280;45349;48.692;8.186;2022-11-20T09:10:55;98362.56;;;6.26;100.00
59531;BME280;45349;48.692;8.186;2022-11-20T09:13:22;98355.47;;;6.28;100.00
59531;BME280;45349;48.692;8.186;2022-11-20T09:15:53;98356.16;;;6.30;100.00
59531;BME280;45349;48.692;8.186;2022-11-20T09:18:19;98354.97;;;6.34;100.00
59531;BME280;45349;48.692;8.186;2022-11-20T09:20:46;98362.88;;;6.32;100.00
59531;BME280;45349;48.692;8.186;2022-11-20T09:23:13;98362.03;;;6.32;100.00
59531;BME280;45349;48.692;8.186;2022-11-20T09:25:41;98360.31;;;6.42;100.00
59531;BME280;45349;48.692;8.186;2022-11-20T09:28:07;98367.44;;;6.50;100.00
59531;BME280;45349;48.692;8.186;2022-11-20T09:30:34;98375.09;;;6.52;100.00
59531;BME280;45349;48.692;8.186;2022-11-20T09:33:00;98373.72;;;6.57;100.00
59531;BME280;45349;48.692;8.186;2022-11-20T09:35:27;98395.84;;;6.52;100.00
59531;BME280;45349;48.692;8.186;2022-11-20T09:37:54;98379.91;;;6.66;100.00
59531;BME280;45349;48.692;8.186;2022-11-20T09:40:22;98383.75;;;6.72;100.00
59531;BME280;45349;48.692;8.186;2022-11-20T09:42:55;98383.75;;;6.72;100.00
59531;BME280;45349;48.692;8.186;2022-11-20T09:45:34;98390.72;;;6.81;100.00
59531;BME280;45349;48.692;8.186;2022-11-20T09:48:14;98392.13;;;6.85;100.00
59531;BME280;45349;48.692;8.186;2022-11-20T09:50:53;98385.16;;;6.86;100.00
59531;BME280;45349;48.692;8.186;2022-11-20T09:53:30;98398.19;;;6.64;100.00
59531;BME280;45349;48.692;8.186;2022-11-20T09:56:01;98385.97;;;6.76;100.00
59531;BME280;45349;48.692;8.186;2022-11-20T09:58:33;98385.91;;;6.67;100.00
59531;BME280;45349;48.692;8.186;2022-11-20T10:01:09;98384.00;;;6.69;100.00
59531;BME280;45349;48.692;8.186;2022-11-20T10:03:42;98397.28;;;6.75;100.00
59531;BME280;45349;48.692;8.186;2022-11-20T10:06:17;98388.03;;;6.83;98.92
59531;BME280;45349;48.692;8.186;2022-11-20T10:08:50;98392.94;;;6.86;99.10
59531;BME280;45349;48.692;8.186;2022-11-20T10:11:26;98390.91;;;6.89;98.52
59531;BME280;45349;48.692;8.186;2022-11-20T10:14:05;98398.94;;;6.86;99.36
59531;BME280;45349;48.692;8.186;2022-11-20T10:16:43;98394.19;;;6.91;98.91
59531;BME280;45349;48.692;8.186;2022-11-20T10:19:30;98389.25;;;6.88;98.89
59531;BME280;45349;48.692;8.186;2022-11-20T10:22:08;98387.50;;;6.99;98.15
59531;BME280;45349;48.692;8.186;2022-11-20T10:24:52;98381.66;;;7.16;96.16
59531;BME280;45349;48.692;8.186;2022-11-20T10:27:41;98376.34;;;7.28;96.30
59531;BME280;45349;48.692;8.186;2022-11-20T10:30:14;98380.00;;;7.25;95.70
59531;BME280;45349;48.692;8.186;2022-11-20T10:32:43;98379.22;;;7.54;95.95
59531;BME280;45349;48.692;8.186;2022-11-20T10:35:21;98374.56;;;7.67;94.51
59531;BME280;45349;48.692;8.186;2022-11-20T10:37:55;98375.34;;;7.68;91.47
59531;BME280;45349;48.692;8.186;2022-11-20T10:40:28;98369.22;;;7.79;90.84
59531;BME280;45349;48.692;8.186;2022-11-20T10:43:00;98378.78;;;7.88;91.72
59531;BME280;45349;48.692;8.186;2022-11-20T10:45:42;98366.22;;;7.54;90.33
59531;BME280;45349;48.692;8.186;2022-11-20T10:48:15;98359.38;;;7.63;89.95
59531;BME280;45349;48.692;8.186;2022-11-20T10:50:53;98355.69;;;7.46;91.78
59531;BME280;45349;48.692;8.186;2022-11-20T10:53:33;98361.72;;;7.36;91.04
59531;BME280;45349;48.692;8.186;2022-11-20T10:56:07;98361.69;;;7.17;92.04
59531;BME280;45349;48.692;8.186;2022-11-20T10:58:43;98349.84;;;7.34;90.27
59531;BME280;45349;48.692;8.186;2022-11-20T11:01:16;98342.16;;;7.32;91.02
59531;BME280;45349;48.692;8.186;2022-11-20T11:03:43;98339.84;;;7.49;90.94
59531;BME280;45349;48.692;8.186;2022-11-20T11:06:15;98332.19;;;7.57;88.07
59531;BME280;45349;48.692;8.186;2022-11-20T11:08:46;98334.34;;;7.42;89.49
59531;BME280;45349;48.692;8.186;2022-11-20T11:11:21;98327.78;;;7.58;88.67
59531;BME280;45349;48.692;8.186;2022-11-20T11:13:48;98327.59;;;7.89;88.65
59531;BME280;45349;48.692;8.186;2022-11-20T11:16:23;98329.94;;;7.72;89.30
59531;BME280;45349;48.692;8.186;2022-11-20T11:18:50;98323.81;;;7.73;86.89
59531;BME280;45349;48.692;8.186;2022-11-20T11:21:24;98315.66;;;7.38;88.75
59531;BME280;45349;48.692;8.186;2022-11-20T11:24:00;98307.19;;;7.27;89.85
59531;BME280;45349;48.692;8.186;2022-11-20T11:26:28;98307.72;;;7.30;90.41
59531;BME280;45349;48.692;8.186;2022-11-20T11:28:56;98294.09;;;7.18;89.54
59531;BME280;45349;48.692;8.186;2022-11-20T11:31:26;98305.94;;;7.41;88.37
59531;BME280;45349;48.692;8.186;2022-11-20T11:34:04;98301.69;;;7.49;87.61
59531;BME280;45349;48.692;8.186;2022-11-20T11:36:32;98291.97;;;7.51;88.92
59531;BME280;45349;48.692;8.186;2022-11-20T11:39:00;98294.31;;;7.45;88.87
59531;BME280;45349;48.692;8.186;2022-11-20T11:41:30;98283.28;;;7.33;89.50
59531;BME280;45349;48.692;8.186;2022-11-20T11:44:01;98275.63;;;7.31;92.23
59531;BME280;45349;48.692;8.186;2022-11-20T11:46:53;98280.41;;;7.36;90.88
59531;BME280;45349;48.692;8.186;2022-11-20T11:49:21;98263.56;;;7.50;89.53
59531;BME280;45349;48.692;8.186;2022-11-20T11:52:04;98259.25;;;7.78;87.46
59531;BME280;45349;48.692;8.186;2022-11-20T11:54:38;98258.44;;;8.06;85.34
59531;BME280;45349;48.692;8.186;2022-11-20T11:57:12;98254.41;;;8.21;84.45
59531;BME280;45349;48.692;8.186;2022-11-20T11:59:51;98265.78;;;8.20;84.05
59531;BME280;45349;48.692;8.186;2022-11-20T12:02:31;98256.69;;;8.06;83.52
59531;BME280;45349;48.692;8.186;2022-11-20T12:05:05;98247.72;;;8.19;85.60
59531;BME280;45349;48.692;8.186;2022-11-20T12:07:39;98242.28;;;8.12;84.38
59531;BME280;45349;48.692;8.186;2022-11-20T12:10:15;98242.38;;;8.20;83.37
59531;BME280;45349;48.692;8.186;2022-11-20T12:12:45;98247.44;;;8.22;83.33
59531;BME280;45349;48.692;8.186;2022-11-20T12:15:23;98246.50;;;8.13;84.44
59531;BME280;45349;48.692;8.186;2022-11-20T12:17:52;98255.91;;;8.24;83.97
59531;BME280;45349;48.692;8.186;2022-11-20T12:20:21;98264.38;;;8.26;81.57
59531;BME280;45349;48.692;8.186;2022-11-20T12:22:53;98253.31;;;8.24;84.63
59531;BME280;45349;48.692;8.186;2022-11-20T12:25:25;98256.97;;;8.31;80.07
59531;BME280;45349;48.692;8.186;2022-11-20T12:28:24;98253.69;;;8.29;80.04
59531;BME280;45349;48.692;8.186;2022-11-20T12:31:09;98261.00;;;8.16;76.49
59531;BME280;45349;48.692;8.186;2022-11-20T12:34:08;98263.69;;;7.96;78.00
59531;BME280;45349;48.692;8.186;2022-11-20T12:36:48;98262.78;;;7.87;78.69
59531;BME280;45349;48.692;8.186;2022-11-20T12:39:33;98249.63;;;7.89;77.77
59531;BME280;45349;48.692;8.186;2022-11-20T12:42:27;98246.97;;;7.71;78.02
59531;BME280;45349;48.692;8.186;2022-11-20T12:48:26;98252.91;;;7.91;76.73
59531;BME280;45349;48.692;8.186;2022-11-20T12:51:09;98249.59;;;7.98;76.14
59531;BME280;45349;48.692;8.186;2022-11-20T12:53:44;98261.88;;;8.06;73.79
59531;BME280;45349;48.692;8.186;2022-11-20T12:56:24;98248.34;;;8.03;75.85
59531;BME280;45349;48.692;8.186;2022-11-20T12:59:03;98251.53;;;8.24;71.87
59531;BME280;45349;48.692;8.186;2022-11-20T13:01:39;98237.91;;;8.12;70.18
59531;BME280;45349;48.692;8.186;2022-11-20T13:04:16;98248.72;;;8.08;69.83
59531;BME280;45349;48.692;8.186;2022-11-20T13:06:50;98240.78;;;8.09;68.00
59531;BME280;45349;48.692;8.186;2022-11-20T13:09:20;98243.63;;;8.16;67.85
59531;BME280;45349;48.692;8.186;2022-11-20T13:11:56;98241.41;;;8.21;67.54
59531;BME280;45349;48.692;8.186;2022-11-20T13:14:33;98235.06;;;8.06;69.76
59531;BME280;45349;48.692;8.186;2022-11-20T13:18:49;98225.44;;;8.62;87.15
59531;BME280;45349;48.692;8.186;2022-11-20T13:21:17;98221.81;;;8.27;72.48
59531;BME280;45349;48.692;8.186;2022-11-20T13:23:44;98225.38;;;8.26;73.96
59531;BME280;45349;48.692;8.186;2022-11-20T13:26:17;98215.38;;;8.31;73.55
59531;BME280;45349;48.692;8.186;2022-11-20T13:28:46;98215.41;;;8.49;71.72
59531;BME280;45349;48.692;8.186;2022-11-20T13:31:28;98206.94;;;8.65;67.55